sensor_id;sensor_type;location;lat;lon;timestamp;P1;durP1;ratioP1;P2;durP2;ratioP2
35592;SDS011;64447;52.140;5.602;2022-12-16T00:01:12;63.17;;;38.88;;
35592;SDS011;64447;52.140;5.602;2022-12-16T00:03:40;64.40;;;38.30;;
35592;SDS011;64447;52.140;5.602;2022-12-16T00:06:07;58.63;;;37.67;;
35592;SDS011;64447;52.140;5.602;2022-12-16T00:08:34;62.47;;;38.13;;
35592;SDS011;64447;52.140;5.602;2022-12-16T00:11:02;61.63;;;37.70;;
35592;SDS011;64447;52.140;5.602;2022-12-16T00:13:29;58.45;;;38.22;;
35592;SDS011;64447;52.140;5.602;2022-12-16T00:15:58;64.15;;;38.55;;
35592;SDS011;64447;52.140;5.602;2022-12-16T00:18:24;62.20;;;39.17;;
35592;SDS011;64447;52.140;5.602;2022-12-16T00:20:51;59.88;;;36.85;;
35592;SDS011;64447;52.140;5.602;2022-12-16T00:23:17;66.07;;;36.92;;
35592;SDS011;64447;52.140;5.602;2022-12-16T00:25:44;62.85;;;37.85;;
35592;SDS011;64447;52.140;5.602;2022-12-16T00:28:11;65.65;;;39.00;;
35592;SDS011;64447;52.140;5.602;2022-12-16T00:30:38;62.40;;;38.22;;
35592;SDS011;64447;52.140;5.602;2022-12-16T00:33:04;59.60;;;36.30;;
35592;SDS011;64447;52.140;5.602;2022-12-16T00:38:51;54.13;;;35.15;;
35592;SDS011;64447;52.140;5.602;2022-12-16T00:41:17;60.05;;;36.20;;
35592;SDS011;64447;52.140;5.602;2022-12-16T00:43:43;59.25;;;36.45;;
35592;SDS011;64447;52.140;5.602;2022-12-16T00:46:08;59.83;;;36.90;;
35592;SDS011;64447;52.140;5.602;2022-12-16T00:48:34;62.15;;;36.65;;
35592;SDS011;64447;52.140;5.602;2022-12-16T00:51:00;62.38;;;35.97;;
35592;SDS011;64447;52.140;5.602;2022-12-16T00:53:25;65.28;;;37.33;;
35592;SDS011;64447;52.140;5.602;2022-12-16T00:55:51;56.30;;;36.30;;
35592;SDS011;64447;52.140;5.602;2022-12-16T00:58:29;57.67;;;35.40;;
35592;SDS011;64447;52.140;5.602;2022-12-16T01:00:55;59.50;;;36.80;;
35592;SDS011;64447;52.140;5.602;2022-12-16T01:03:20;62.75;;;38.22;;
35592;SDS011;64447;52.140;5.602;2022-12-16T01:05:46;58.80;;;35.95;;
35592;SDS011;64447;52.140;5.602;2022-12-16T01:08:12;61.50;;;39.17;;
35592;SDS011;64447;52.140;5.602;2022-12-16T01:10:37;68.75;;;38.00;;
35592;SDS011;64447;52.140;5.602;2022-12-16T01:13:03;59.15;;;38.28;;
35592;SDS011;64447;52.140;5.602;2022-12-16T01:15:28;65.55;;;39.35;;
35592;SDS011;64447;52.140;5.602;2022-12-16T01:17:54;66.15;;;38.70;;
35592;SDS011;64447;52.140;5.602;2022-12-16T01:23:41;59.70;;;37.35;;
35592;SDS011;64447;52.140;5.602;2022-12-16T01:26:08;63.95;;;40.15;;
35592;SDS011;64447;52.140;5.602;2022-12-16T01:28:34;62.38;;;39.38;;
35592;SDS011;64447;52.140;5.602;2022-12-16T01:31:00;61.88;;;37.67;;
35592;SDS011;64447;52.140;5.602;2022-12-16T01:33:29;69.43;;;39.92;;
35592;SDS011;64447;52.140;5.602;2022-12-16T01:35:57;65.82;;;39.35;;
35592;SDS011;64447;52.140;5.602;2022-12-16T01:38:23;61.92;;;38.47;;
35592;SDS011;64447;52.140;5.602;2022-12-16T01:40:49;62.05;;;36.83;;
35592;SDS011;64447;52.140;5.602;2022-12-16T01:43:15;58.35;;;37.38;;
35592;SDS011;64447;52.140;5.602;2022-12-16T01:45:42;62.08;;;36.97;;
35592;SDS011;64447;52.140;5.602;2022-12-16T01:54:53;67.88;;;39.03;;
35592;SDS011;64447;52.140;5.602;2022-12-16T01:57:25;63.38;;;38.80;;
35592;SDS011;64447;52.140;5.602;2022-12-16T01:59:57;63.15;;;39.58;;
35592;SDS011;64447;52.140;5.602;2022-12-16T02:02:23;65.80;;;38.22;;
35592;SDS011;64447;52.140;5.602;2022-12-16T02:04:48;67.55;;;38.13;;
35592;SDS011;64447;52.140;5.602;2022-12-16T02:07:33;68.55;;;39.97;;
35592;SDS011;64447;52.140;5.602;2022-12-16T02:09:58;62.08;;;37.60;;
35592;SDS011;64447;52.140;5.602;2022-12-16T02:12:33;66.97;;;38.47;;
35592;SDS011;64447;52.140;5.602;2022-12-16T02:17:58;62.90;;;38.25;;
35592;SDS011;64447;52.140;5.602;2022-12-16T02:20:48;62.20;;;39.30;;
35592;SDS011;64447;52.140;5.602;2022-12-16T02:41:01;62.45;;;38.85;;
35592;SDS011;64447;52.140;5.602;2022-12-16T02:46:26;58.70;;;36.47;;
35592;SDS011;64447;52.140;5.602;2022-12-16T02:48:54;59.22;;;36.17;;
35592;SDS011;64447;52.140;5.602;2022-12-16T02:55:19;65.80;;;38.58;;
35592;SDS011;64447;52.140;5.602;2022-12-16T02:58:03;62.15;;;37.63;;
35592;SDS011;64447;52.140;5.602;2022-12-16T03:00:41;63.75;;;38.97;;
35592;SDS011;64447;52.140;5.602;2022-12-16T03:03:23;60.67;;;37.13;;
35592;SDS011;64447;52.140;5.602;2022-12-16T03:09:18;58.83;;;36.95;;
35592;SDS011;64447;52.140;5.602;2022-12-16T03:11:49;61.28;;;39.30;;
35592;SDS011;64447;52.140;5.602;2022-12-16T03:14:18;68.57;;;39.75;;
35592;SDS011;64447;52.140;5.602;2022-12-16T03:16:47;60.33;;;37.17;;
35592;SDS011;64447;52.140;5.602;2022-12-16T03:19:14;63.15;;;38.40;;
35592;SDS011;64447;52.140;5.602;2022-12-16T03:24:32;64.10;;;38.75;;
35592;SDS011;64447;52.140;5.602;2022-12-16T03:27:11;65.93;;;39.83;;
35592;SDS011;64447;52.140;5.602;2022-12-16T03:30:17;67.80;;;39.45;;
35592;SDS011;64447;52.140;5.602;2022-12-16T03:32:50;64.25;;;38.25;;
35592;SDS011;64447;52.140;5.602;2022-12-16T03:35:29;62.05;;;39.05;;
35592;SDS011;64447;52.140;5.602;2022-12-16T03:38:01;62.88;;;37.75;;
35592;SDS011;64447;52.140;5.602;2022-12-16T03:40:29;67.30;;;37.00;;
35592;SDS011;64447;52.140;5.602;2022-12-16T03:42:56;63.70;;;37.95;;
35592;SDS011;64447;52.140;5.602;2022-12-16T03:45:27;73.93;;;40.95;;
35592;SDS011;64447;52.140;5.602;2022-12-16T03:47:57;74.45;;;40.38;;
35592;SDS011;64447;52.140;5.602;2022-12-16T03:50:27;77.35;;;41.83;;
35592;SDS011;64447;52.140;5.602;2022-12-16T03:52:56;75.05;;;41.67;;
35592;SDS011;64447;52.140;5.602;2022-12-16T03:55:21;83.63;;;42.45;;
35592;SDS011;64447;52.140;5.602;2022-12-16T03:57:47;78.57;;;42.70;;
35592;SDS011;64447;52.140;5.602;2022-12-16T04:00:13;76.20;;;42.60;;
35592;SDS011;64447;52.140;5.602;2022-12-16T04:02:39;80.57;;;43.30;;
35592;SDS011;64447;52.140;5.602;2022-12-16T04:05:05;76.25;;;43.67;;
35592;SDS011;64447;52.140;5.602;2022-12-16T04:07:31;81.55;;;45.55;;
35592;SDS011;64447;52.140;5.602;2022-12-16T04:09:57;79.80;;;43.58;;
35592;SDS011;64447;52.140;5.602;2022-12-16T04:12:22;77.15;;;43.85;;
35592;SDS011;64447;52.140;5.602;2022-12-16T04:15:06;75.18;;;41.75;;
35592;SDS011;64447;52.140;5.602;2022-12-16T04:17:50;77.35;;;43.28;;
35592;SDS011;64447;52.140;5.602;2022-12-16T04:20:35;85.57;;;43.65;;
35592;SDS011;64447;52.140;5.602;2022-12-16T04:23:22;80.07;;;43.15;;
35592;SDS011;64447;52.140;5.602;2022-12-16T04:26:28;83.97;;;42.55;;
35592;SDS011;64447;52.140;5.602;2022-12-16T04:28:54;77.97;;;41.33;;
35592;SDS011;64447;52.140;5.602;2022-12-16T04:31:19;78.38;;;42.10;;
35592;SDS011;64447;52.140;5.602;2022-12-16T04:33:45;81.85;;;43.08;;
35592;SDS011;64447;52.140;5.602;2022-12-16T04:36:29;83.68;;;43.38;;
35592;SDS011;64447;52.140;5.602;2022-12-16T04:39:13;82.70;;;43.67;;
35592;SDS011;64447;52.140;5.602;2022-12-16T04:41:57;73.82;;;41.30;;
35592;SDS011;64447;52.140;5.602;2022-12-16T04:44:41;80.50;;;43.97;;
35592;SDS011;64447;52.140;5.602;2022-12-16T04:47:25;77.35;;;42.13;;
35592;SDS011;64447;52.140;5.602;2022-12-16T04:53:31;71.60;;;40.45;;
35592;SDS011;64447;52.140;5.602;2022-12-16T04:56:15;75.85;;;38.85;;
35592;SDS011;64447;52.140;5.602;2022-12-16T04:58:59;75.82;;;39.92;;
35592;SDS011;64447;52.140;5.602;2022-12-16T05:01:51;74.53;;;39.58;;
35592;SDS011;64447;52.140;5.602;2022-12-16T05:04:35;70.32;;;38.55;;
35592;SDS011;64447;52.140;5.602;2022-12-16T05:10:41;69.80;;;40.47;;
35592;SDS011;64447;52.140;5.602;2022-12-16T05:13:25;73.25;;;40.28;;
35592;SDS011;64447;52.140;5.602;2022-12-16T05:16:09;69.47;;;37.50;;
35592;SDS011;64447;52.140;5.602;2022-12-16T05:18:53;68.63;;;39.38;;
35592;SDS011;64447;52.140;5.602;2022-12-16T05:21:37;65.80;;;37.10;;
35592;SDS011;64447;52.140;5.602;2022-12-16T05:24:21;65.50;;;37.33;;
35592;SDS011;64447;52.140;5.602;2022-12-16T05:27:05;68.95;;;36.92;;
35592;SDS011;64447;52.140;5.602;2022-12-16T05:29:49;63.35;;;36.13;;
35592;SDS011;64447;52.140;5.602;2022-12-16T05:32:33;59.55;;;34.70;;
35592;SDS011;64447;52.140;5.602;2022-12-16T05:38:39;59.70;;;35.38;;
35592;SDS011;64447;52.140;5.602;2022-12-16T05:41:23;65.65;;;35.40;;
35592;SDS011;64447;52.140;5.602;2022-12-16T05:44:07;62.10;;;34.08;;
35592;SDS011;64447;52.140;5.602;2022-12-16T05:46:51;57.25;;;34.17;;
35592;SDS011;64447;52.140;5.602;2022-12-16T05:49:35;55.22;;;34.22;;
35592;SDS011;64447;52.140;5.602;2022-12-16T05:55:41;49.70;;;31.23;;
35592;SDS011;64447;52.140;5.602;2022-12-16T05:58:26;55.08;;;31.30;;
35592;SDS011;64447;52.140;5.602;2022-12-16T06:01:11;51.45;;;31.52;;
35592;SDS011;64447;52.140;5.602;2022-12-16T06:03:56;54.65;;;30.80;;
35592;SDS011;64447;52.140;5.602;2022-12-16T06:10:02;46.70;;;29.27;;
35592;SDS011;64447;52.140;5.602;2022-12-16T06:12:47;49.70;;;29.33;;
35592;SDS011;64447;52.140;5.602;2022-12-16T06:15:31;51.08;;;29.98;;
35592;SDS011;64447;52.140;5.602;2022-12-16T06:18:15;52.85;;;29.67;;
35592;SDS011;64447;52.140;5.602;2022-12-16T06:20:59;45.22;;;27.00;;
35592;SDS011;64447;52.140;5.602;2022-12-16T06:23:43;38.15;;;25.10;;
35592;SDS011;64447;52.140;5.602;2022-12-16T06:26:27;38.17;;;24.02;;
35592;SDS011;64447;52.140;5.602;2022-12-16T06:29:11;38.00;;;23.75;;
35592;SDS011;64447;52.140;5.602;2022-12-16T06:31:55;39.05;;;21.70;;
35592;SDS011;64447;52.140;5.602;2022-12-16T06:34:39;36.10;;;20.35;;
35592;SDS011;64447;52.140;5.602;2022-12-16T06:37:23;36.92;;;20.98;;
35592;SDS011;64447;52.140;5.602;2022-12-16T06:40:08;31.98;;;19.10;;
35592;SDS011;64447;52.140;5.602;2022-12-16T06:42:52;29.20;;;17.85;;
35592;SDS011;64447;52.140;5.602;2022-12-16T06:45:36;28.67;;;17.63;;
35592;SDS011;64447;52.140;5.602;2022-12-16T06:48:20;25.63;;;15.85;;
35592;SDS011;64447;52.140;5.602;2022-12-16T06:54:26;25.02;;;15.80;;
35592;SDS011;64447;52.140;5.602;2022-12-16T06:57:10;25.65;;;15.35;;
35592;SDS011;64447;52.140;5.602;2022-12-16T06:59:54;26.73;;;16.63;;
35592;SDS011;64447;52.140;5.602;2022-12-16T07:02:38;22.95;;;14.65;;
35592;SDS011;64447;52.140;5.602;2022-12-16T07:05:22;22.05;;;14.27;;
35592;SDS011;64447;52.140;5.602;2022-12-16T07:08:06;23.30;;;14.52;;
35592;SDS011;64447;52.140;5.602;2022-12-16T07:10:50;22.92;;;14.68;;
35592;SDS011;64447;52.140;5.602;2022-12-16T07:13:34;25.65;;;15.95;;
35592;SDS011;64447;52.140;5.602;2022-12-16T07:16:18;24.20;;;15.80;;
35592;SDS011;64447;52.140;5.602;2022-12-16T07:19:02;23.98;;;15.30;;
35592;SDS011;64447;52.140;5.602;2022-12-16T07:21:46;26.13;;;16.58;;
35592;SDS011;64447;52.140;5.602;2022-12-16T07:24:30;24.05;;;15.57;;
35592;SDS011;64447;52.140;5.602;2022-12-16T07:27:15;26.40;;;16.15;;
35592;SDS011;64447;52.140;5.602;2022-12-16T07:29:59;29.90;;;16.88;;
35592;SDS011;64447;52.140;5.602;2022-12-16T07:32:43;28.70;;;17.45;;
35592;SDS011;64447;52.140;5.602;2022-12-16T07:38:49;23.23;;;15.63;;
35592;SDS011;64447;52.140;5.602;2022-12-16T07:41:33;28.85;;;16.83;;
35592;SDS011;64447;52.140;5.602;2022-12-16T07:44:17;29.42;;;18.00;;
35592;SDS011;64447;52.140;5.602;2022-12-16T07:47:01;31.58;;;19.63;;
35592;SDS011;64447;52.140;5.602;2022-12-16T07:49:45;26.42;;;16.92;;
35592;SDS011;64447;52.140;5.602;2022-12-16T07:55:51;29.75;;;18.48;;
35592;SDS011;64447;52.140;5.602;2022-12-16T07:58:35;31.02;;;18.30;;
35592;SDS011;64447;52.140;5.602;2022-12-16T08:01:19;27.67;;;18.13;;
35592;SDS011;64447;52.140;5.602;2022-12-16T08:04:03;33.28;;;17.90;;
35592;SDS011;64447;52.140;5.602;2022-12-16T08:10:09;33.97;;;18.60;;
35592;SDS011;64447;52.140;5.602;2022-12-16T08:13:00;27.98;;;16.88;;
35592;SDS011;64447;52.140;5.602;2022-12-16T08:15:45;28.35;;;18.20;;
35592;SDS011;64447;52.140;5.602;2022-12-16T08:18:29;30.15;;;17.77;;
35592;SDS011;64447;52.140;5.602;2022-12-16T08:21:13;34.85;;;17.52;;
35592;SDS011;64447;52.140;5.602;2022-12-16T08:23:58;27.48;;;17.27;;
35592;SDS011;64447;52.140;5.602;2022-12-16T08:26:42;25.55;;;15.98;;
35592;SDS011;64447;52.140;5.602;2022-12-16T08:29:26;26.00;;;16.17;;
35592;SDS011;64447;52.140;5.602;2022-12-16T08:32:11;28.17;;;16.63;;
35592;SDS011;64447;52.140;5.602;2022-12-16T08:34:58;27.42;;;15.38;;
35592;SDS011;64447;52.140;5.602;2022-12-16T08:37:42;26.98;;;15.30;;
35592;SDS011;64447;52.140;5.602;2022-12-16T08:40:26;30.58;;;16.13;;
35592;SDS011;64447;52.140;5.602;2022-12-16T08:43:10;28.80;;;16.60;;
35592;SDS011;64447;52.140;5.602;2022-12-16T08:45:54;33.75;;;16.27;;
35592;SDS011;64447;52.140;5.602;2022-12-16T08:48:39;26.83;;;15.55;;
35592;SDS011;64447;52.140;5.602;2022-12-16T08:54:45;33.65;;;15.05;;
35592;SDS011;64447;52.140;5.602;2022-12-16T08:57:52;23.52;;;13.30;;
35592;SDS011;64447;52.140;5.602;2022-12-16T09:00:37;25.38;;;13.27;;
35592;SDS011;64447;52.140;5.602;2022-12-16T09:03:21;25.30;;;13.63;;
35592;SDS011;64447;52.140;5.602;2022-12-16T09:06:05;29.75;;;14.25;;
35592;SDS011;64447;52.140;5.602;2022-12-16T09:08:50;28.88;;;14.05;;
35592;SDS011;64447;52.140;5.602;2022-12-16T09:11:34;22.35;;;12.65;;
35592;SDS011;64447;52.140;5.602;2022-12-16T09:14:18;25.42;;;13.93;;
35592;SDS011;64447;52.140;5.602;2022-12-16T09:17:02;25.25;;;13.00;;
35592;SDS011;64447;52.140;5.602;2022-12-16T09:19:46;23.52;;;12.48;;
35592;SDS011;64447;52.140;5.602;2022-12-16T09:22:30;23.38;;;11.98;;
35592;SDS011;64447;52.140;5.602;2022-12-16T09:25:15;25.17;;;11.52;;
35592;SDS011;64447;52.140;5.602;2022-12-16T09:27:59;21.20;;;11.18;;
35592;SDS011;64447;52.140;5.602;2022-12-16T09:30:43;20.65;;;10.88;;
35592;SDS011;64447;52.140;5.602;2022-12-16T09:33:27;18.30;;;11.02;;
35592;SDS011;64447;52.140;5.602;2022-12-16T09:39:33;18.73;;;10.80;;
35592;SDS011;64447;52.140;5.602;2022-12-16T09:45:46;24.70;;;11.23;;
35592;SDS011;64447;52.140;5.602;2022-12-16T09:48:46;17.98;;;10.35;;
35592;SDS011;64447;52.140;5.602;2022-12-16T09:51:42;19.65;;;10.10;;
35592;SDS011;64447;52.140;5.602;2022-12-16T09:54:28;17.95;;;10.25;;
35592;SDS011;64447;52.140;5.602;2022-12-16T09:57:17;21.17;;;10.25;;
35592;SDS011;64447;52.140;5.602;2022-12-16T10:00:05;15.48;;;8.77;;
35592;SDS011;64447;52.140;5.602;2022-12-16T10:02:50;17.25;;;9.85;;
35592;SDS011;64447;52.140;5.602;2022-12-16T10:05:51;20.15;;;9.20;;
35592;SDS011;64447;52.140;5.602;2022-12-16T10:09:01;17.83;;;9.50;;
35592;SDS011;64447;52.140;5.602;2022-12-16T10:12:58;20.08;;;10.38;;
35592;SDS011;64447;52.140;5.602;2022-12-16T10:15:30;14.52;;;8.45;;
35592;SDS011;64447;52.140;5.602;2022-12-16T10:18:42;18.92;;;9.00;;
35592;SDS011;64447;52.140;5.602;2022-12-16T10:21:59;16.80;;;8.95;;
35592;SDS011;64447;52.140;5.602;2022-12-16T10:27:57;16.23;;;9.38;;
35592;SDS011;64447;52.140;5.602;2022-12-16T10:30:47;21.73;;;11.68;;
35592;SDS011;64447;52.140;5.602;2022-12-16T10:33:33;22.45;;;11.85;;
35592;SDS011;64447;52.140;5.602;2022-12-16T10:39:42;20.60;;;10.73;;
35592;SDS011;64447;52.140;5.602;2022-12-16T10:42:34;21.33;;;12.20;;
35592;SDS011;64447;52.140;5.602;2022-12-16T10:45:36;20.23;;;12.05;;
35592;SDS011;64447;52.140;5.602;2022-12-16T10:48:26;23.33;;;13.38;;
35592;SDS011;64447;52.140;5.602;2022-12-16T10:54:39;24.33;;;13.43;;
35592;SDS011;64447;52.140;5.602;2022-12-16T11:00:58;29.73;;;14.60;;
35592;SDS011;64447;52.140;5.602;2022-12-16T11:03:42;25.45;;;15.98;;
35592;SDS011;64447;52.140;5.602;2022-12-16T11:06:28;28.23;;;17.33;;
35592;SDS011;64447;52.140;5.602;2022-12-16T11:09:28;32.60;;;19.08;;
35592;SDS011;64447;52.140;5.602;2022-12-16T11:12:27;33.65;;;18.25;;
35592;SDS011;64447;52.140;5.602;2022-12-16T11:18:16;35.10;;;20.00;;
35592;SDS011;64447;52.140;5.602;2022-12-16T11:21:15;40.50;;;21.63;;
35592;SDS011;64447;52.140;5.602;2022-12-16T11:24:11;40.53;;;22.00;;
35592;SDS011;64447;52.140;5.602;2022-12-16T11:27:01;39.70;;;22.50;;
35592;SDS011;64447;52.140;5.602;2022-12-16T11:29:50;40.83;;;23.88;;
35592;SDS011;64447;52.140;5.602;2022-12-16T11:32:36;46.45;;;23.92;;
35592;SDS011;64447;52.140;5.602;2022-12-16T11:35:22;42.30;;;23.52;;
35592;SDS011;64447;52.140;5.602;2022-12-16T11:41:36;43.80;;;23.98;;
35592;SDS011;64447;52.140;5.602;2022-12-16T11:45:01;40.17;;;24.08;;
35592;SDS011;64447;52.140;5.602;2022-12-16T11:50:37;41.90;;;22.83;;
35592;SDS011;64447;52.140;5.602;2022-12-16T11:53:44;41.70;;;25.23;;
35592;SDS011;64447;52.140;5.602;2022-12-16T11:56:38;38.75;;;23.42;;
35592;SDS011;64447;52.140;5.602;2022-12-16T12:12:33;41.85;;;25.52;;
35592;SDS011;64447;52.140;5.602;2022-12-16T12:21:26;45.60;;;26.63;;
35592;SDS011;64447;52.140;5.602;2022-12-16T12:34:22;52.25;;;27.73;;
35592;SDS011;64447;52.140;5.602;2022-12-16T12:46:56;53.17;;;31.33;;
35592;SDS011;64447;52.140;5.602;2022-12-16T12:49:46;53.50;;;30.17;;
35592;SDS011;64447;52.140;5.602;2022-12-16T12:56:09;59.20;;;32.15;;
35592;SDS011;64447;52.140;5.602;2022-12-16T12:59:03;62.35;;;32.08;;
35592;SDS011;64447;52.140;5.602;2022-12-16T13:01:54;62.90;;;33.90;;
35592;SDS011;64447;52.140;5.602;2022-12-16T13:04:39;55.70;;;31.50;;
35592;SDS011;64447;52.140;5.602;2022-12-16T13:10:46;57.28;;;32.58;;
35592;SDS011;64447;52.140;5.602;2022-12-16T13:13:35;57.00;;;31.60;;
35592;SDS011;64447;52.140;5.602;2022-12-16T13:19:39;56.13;;;32.22;;
35592;SDS011;64447;52.140;5.602;2022-12-16T13:25:54;54.80;;;31.42;;
35592;SDS011;64447;52.140;5.602;2022-12-16T13:44:08;53.25;;;29.42;;
35592;SDS011;64447;52.140;5.602;2022-12-16T13:46:53;55.45;;;33.05;;
35592;SDS011;64447;52.140;5.602;2022-12-16T13:49:40;56.20;;;32.35;;
35592;SDS011;64447;52.140;5.602;2022-12-16T13:52:31;58.55;;;32.35;;
35592;SDS011;64447;52.140;5.602;2022-12-16T14:01:37;58.20;;;33.40;;
35592;SDS011;64447;52.140;5.602;2022-12-16T14:04:32;59.55;;;32.45;;
35592;SDS011;64447;52.140;5.602;2022-12-16T14:10:43;56.05;;;32.45;;
35592;SDS011;64447;52.140;5.602;2022-12-16T14:16:58;57.00;;;31.80;;
35592;SDS011;64447;52.140;5.602;2022-12-16T14:25:31;53.30;;;31.48;;
35592;SDS011;64447;52.140;5.602;2022-12-16T14:31:17;59.53;;;32.65;;
35592;SDS011;64447;52.140;5.602;2022-12-16T14:34:03;54.10;;;32.10;;
35592;SDS011;64447;52.140;5.602;2022-12-16T14:36:48;59.10;;;33.30;;
35592;SDS011;64447;52.140;5.602;2022-12-16T14:39:37;57.58;;;33.58;;
35592;SDS011;64447;52.140;5.602;2022-12-16T14:42:26;56.03;;;33.83;;
35592;SDS011;64447;52.140;5.602;2022-12-16T14:45:30;59.45;;;34.67;;
35592;SDS011;64447;52.140;5.602;2022-12-16T14:54:53;61.58;;;37.42;;
35592;SDS011;64447;52.140;5.602;2022-12-16T14:57:24;60.33;;;34.95;;
35592;SDS011;64447;52.140;5.602;2022-12-16T15:00:11;57.63;;;34.33;;
35592;SDS011;64447;52.140;5.602;2022-12-16T15:03:00;56.25;;;33.08;;
35592;SDS011;64447;52.140;5.602;2022-12-16T15:06:13;57.47;;;32.65;;
35592;SDS011;64447;52.140;5.602;2022-12-16T15:09:16;57.47;;;32.72;;
35592;SDS011;64447;52.140;5.602;2022-12-16T15:12:12;57.88;;;31.75;;
35592;SDS011;64447;52.140;5.602;2022-12-16T15:14:58;66.05;;;37.72;;
35592;SDS011;64447;52.140;5.602;2022-12-16T15:17:47;60.20;;;37.55;;
35592;SDS011;64447;52.140;5.602;2022-12-16T15:20:36;210.18;;;123.32;;
35592;SDS011;64447;52.140;5.602;2022-12-16T15:23:31;164.57;;;100.13;;
35592;SDS011;64447;52.140;5.602;2022-12-16T15:26:20;86.30;;;49.20;;
35592;SDS011;64447;52.140;5.602;2022-12-16T15:32:40;59.35;;;33.92;;
35592;SDS011;64447;52.140;5.602;2022-12-16T15:41:31;58.85;;;32.85;;
35592;SDS011;64447;52.140;5.602;2022-12-16T15:44:24;59.85;;;33.30;;
35592;SDS011;64447;52.140;5.602;2022-12-16T15:50:13;57.53;;;32.30;;
35592;SDS011;64447;52.140;5.602;2022-12-16T15:55:58;52.60;;;29.67;;
35592;SDS011;64447;52.140;5.602;2022-12-16T15:58:42;59.30;;;32.28;;
35592;SDS011;64447;52.140;5.602;2022-12-16T16:01:27;54.90;;;31.80;;
35592;SDS011;64447;52.140;5.602;2022-12-16T16:04:25;57.35;;;32.08;;
35592;SDS011;64447;52.140;5.602;2022-12-16T16:07:15;56.72;;;32.55;;
35592;SDS011;64447;52.140;5.602;2022-12-16T16:10:18;58.78;;;33.03;;
35592;SDS011;64447;52.140;5.602;2022-12-16T16:13:05;56.50;;;32.33;;
35592;SDS011;64447;52.140;5.602;2022-12-16T16:15:49;57.45;;;32.17;;
35592;SDS011;64447;52.140;5.602;2022-12-16T16:18:34;58.95;;;33.65;;
35592;SDS011;64447;52.140;5.602;2022-12-16T16:21:18;57.55;;;32.20;;
35592;SDS011;64447;52.140;5.602;2022-12-16T16:27:24;60.50;;;32.15;;
35592;SDS011;64447;52.140;5.602;2022-12-16T16:30:10;58.33;;;32.35;;
35592;SDS011;64447;52.140;5.602;2022-12-16T16:32:55;56.20;;;32.40;;
35592;SDS011;64447;52.140;5.602;2022-12-16T16:35:39;61.03;;;31.77;;
35592;SDS011;64447;52.140;5.602;2022-12-16T16:38:23;57.50;;;30.52;;
35592;SDS011;64447;52.140;5.602;2022-12-16T16:41:11;52.45;;;29.60;;
35592;SDS011;64447;52.140;5.602;2022-12-16T16:43:58;55.50;;;30.42;;
35592;SDS011;64447;52.140;5.602;2022-12-16T16:46:42;54.67;;;30.10;;
35592;SDS011;64447;52.140;5.602;2022-12-16T16:49:33;55.28;;;30.13;;
35592;SDS011;64447;52.140;5.602;2022-12-16T16:52:21;51.90;;;29.20;;
35592;SDS011;64447;52.140;5.602;2022-12-16T16:55:06;58.63;;;31.05;;
35592;SDS011;64447;52.140;5.602;2022-12-16T16:57:56;55.72;;;28.88;;
35592;SDS011;64447;52.140;5.602;2022-12-16T17:00:40;58.60;;;31.05;;
35592;SDS011;64447;52.140;5.602;2022-12-16T17:03:24;56.85;;;31.17;;
35592;SDS011;64447;52.140;5.602;2022-12-16T17:06:08;58.85;;;31.60;;
35592;SDS011;64447;52.140;5.602;2022-12-16T17:12:18;59.28;;;30.08;;
35592;SDS011;64447;52.140;5.602;2022-12-16T17:15:12;60.35;;;31.17;;
35592;SDS011;64447;52.140;5.602;2022-12-16T17:18:03;59.20;;;29.17;;
35592;SDS011;64447;52.140;5.602;2022-12-16T17:20:47;58.08;;;29.60;;
35592;SDS011;64447;52.140;5.602;2022-12-16T17:23:31;60.40;;;29.90;;
35592;SDS011;64447;52.140;5.602;2022-12-16T17:29:38;58.30;;;31.85;;
35592;SDS011;64447;52.140;5.602;2022-12-16T17:32:22;56.45;;;30.50;;
35592;SDS011;64447;52.140;5.602;2022-12-16T17:35:07;57.85;;;30.85;;
35592;SDS011;64447;52.140;5.602;2022-12-16T17:37:53;61.20;;;32.15;;
35592;SDS011;64447;52.140;5.602;2022-12-16T17:40:37;64.82;;;31.40;;
35592;SDS011;64447;52.140;5.602;2022-12-16T17:43:21;59.67;;;31.90;;
35592;SDS011;64447;52.140;5.602;2022-12-16T17:46:06;63.17;;;32.63;;
35592;SDS011;64447;52.140;5.602;2022-12-16T17:48:53;59.45;;;31.13;;
35592;SDS011;64447;52.140;5.602;2022-12-16T17:51:38;53.38;;;30.23;;
35592;SDS011;64447;52.140;5.602;2022-12-16T17:57:45;60.30;;;30.40;;
35592;SDS011;64447;52.140;5.602;2022-12-16T18:00:29;59.15;;;30.50;;
35592;SDS011;64447;52.140;5.602;2022-12-16T18:03:13;64.85;;;32.40;;
35592;SDS011;64447;52.140;5.602;2022-12-16T18:05:57;63.60;;;31.65;;
35592;SDS011;64447;52.140;5.602;2022-12-16T18:08:41;57.90;;;30.42;;
35592;SDS011;64447;52.140;5.602;2022-12-16T18:11:25;52.63;;;28.60;;
35592;SDS011;64447;52.140;5.602;2022-12-16T18:14:09;54.17;;;29.77;;
35592;SDS011;64447;52.140;5.602;2022-12-16T18:16:52;53.22;;;28.35;;
35592;SDS011;64447;52.140;5.602;2022-12-16T18:19:37;60.05;;;30.73;;
35592;SDS011;64447;52.140;5.602;2022-12-16T18:22:21;55.78;;;29.70;;
35592;SDS011;64447;52.140;5.602;2022-12-16T18:28:27;56.10;;;28.88;;
35592;SDS011;64447;52.140;5.602;2022-12-16T18:31:11;64.63;;;31.85;;
35592;SDS011;64447;52.140;5.602;2022-12-16T18:33:55;55.13;;;28.42;;
35592;SDS011;64447;52.140;5.602;2022-12-16T18:36:39;64.00;;;31.08;;
35592;SDS011;64447;52.140;5.602;2022-12-16T18:39:23;61.88;;;29.30;;
35592;SDS011;64447;52.140;5.602;2022-12-16T18:42:07;58.17;;;30.17;;
35592;SDS011;64447;52.140;5.602;2022-12-16T18:44:52;59.20;;;30.50;;
35592;SDS011;64447;52.140;5.602;2022-12-16T18:47:36;61.78;;;31.15;;
35592;SDS011;64447;52.140;5.602;2022-12-16T18:50:20;58.72;;;31.02;;
35592;SDS011;64447;52.140;5.602;2022-12-16T18:53:04;56.00;;;30.10;;
35592;SDS011;64447;52.140;5.602;2022-12-16T18:55:57;62.15;;;31.75;;
35592;SDS011;64447;52.140;5.602;2022-12-16T18:58:42;69.25;;;32.58;;
35592;SDS011;64447;52.140;5.602;2022-12-16T19:01:26;60.63;;;30.88;;
35592;SDS011;64447;52.140;5.602;2022-12-16T19:04:10;54.75;;;30.27;;
35592;SDS011;64447;52.140;5.602;2022-12-16T19:06:54;57.17;;;29.13;;
35592;SDS011;64447;52.140;5.602;2022-12-16T19:13:00;58.95;;;29.50;;
35592;SDS011;64447;52.140;5.602;2022-12-16T19:15:54;57.30;;;29.33;;
35592;SDS011;64447;52.140;5.602;2022-12-16T19:18:39;59.78;;;29.98;;
35592;SDS011;64447;52.140;5.602;2022-12-16T19:21:24;63.03;;;29.55;;
35592;SDS011;64447;52.140;5.602;2022-12-16T19:24:08;64.28;;;32.20;;
35592;SDS011;64447;52.140;5.602;2022-12-16T19:30:14;61.55;;;29.88;;
35592;SDS011;64447;52.140;5.602;2022-12-16T19:32:57;66.65;;;32.03;;
35592;SDS011;64447;52.140;5.602;2022-12-16T19:35:41;62.13;;;30.85;;
35592;SDS011;64447;52.140;5.602;2022-12-16T19:38:25;64.43;;;31.90;;
35592;SDS011;64447;52.140;5.602;2022-12-16T19:41:13;61.67;;;32.38;;
35592;SDS011;64447;52.140;5.602;2022-12-16T19:43:59;66.07;;;33.28;;
35592;SDS011;64447;52.140;5.602;2022-12-16T19:46:44;51.88;;;28.42;;
35592;SDS011;64447;52.140;5.602;2022-12-16T19:49:29;67.93;;;30.75;;
35592;SDS011;64447;52.140;5.602;2022-12-16T19:52:13;56.85;;;30.02;;
35592;SDS011;64447;52.140;5.602;2022-12-16T19:58:19;69.43;;;32.47;;
35592;SDS011;64447;52.140;5.602;2022-12-16T20:01:03;65.55;;;31.88;;